sensor_id;sensor_type;location;lat;lon;timestamp;temperature;humidity
32394;DHT22;18853;45.426;9.206;2022-08-03T00:00:51;32.00;39.20
32394;DHT22;18853;45.426;9.206;2022-08-03T00:03:16;32.10;39.20
32394;DHT22;18853;45.426;9.206;2022-08-03T00:05:42;32.00;39.10
32394;DHT22;18853;45.426;9.206;2022-08-03T00:08:08;32.00;39.30
32394;DHT22;18853;45.426;9.206;2022-08-03T00:10:33;32.00;39.20
32394;DHT22;18853;45.426;9.206;2022-08-03T00:12:59;32.00;39.30
32394;DHT22;18853;45.426;9.206;2022-08-03T00:15:25;32.00;39.30
32394;DHT22;18853;45.426;9.206;2022-08-03T00:17:50;31.90;39.40
32394;DHT22;18853;45.426;9.206;2022-08-03T00:20:16;31.90;39.30
32394;DHT22;18853;45.426;9.206;2022-08-03T00:22:41;32.00;39.40
32394;DHT22;18853;45.426;9.206;2022-08-03T00:25:07;31.90;39.40
32394;DHT22;18853;45.426;9.206;2022-08-03T00:27:33;31.90;39.40
32394;DHT22;18853;45.426;9.206;2022-08-03T00:29:58;31.90;39.50
32394;DHT22;18853;45.426;9.206;2022-08-03T00:32:24;31.90;39.50
32394;DHT22;18853;45.426;9.206;2022-08-03T00:34:50;31.90;39.50
32394;DHT22;18853;45.426;9.206;2022-08-03T00:37:16;31.90;39.60
32394;DHT22;18853;45.426;9.206;2022-08-03T00:39:41;31.90;39.70
32394;DHT22;18853;45.426;9.206;2022-08-03T00:42:10;31.80;39.60
32394;DHT22;18853;45.426;9.206;2022-08-03T00:44:40;31.80;39.80
32394;DHT22;18853;45.426;9.206;2022-08-03T00:47:06;31.80;39.70
32394;DHT22;18853;45.426;9.206;2022-08-03T00:49:32;31.80;39.70
32394;DHT22;18853;45.426;9.206;2022-08-03T00:51:59;31.80;39.70
32394;DHT22;18853;45.426;9.206;2022-08-03T00:54:25;31.80;39.80
32394;DHT22;18853;45.426;9.206;2022-08-03T00:56:50;31.80;39.70
32394;DHT22;18853;45.426;9.206;2022-08-03T00:59:17;31.80;39.80
32394;DHT22;18853;45.426;9.206;2022-08-03T01:01:43;31.80;39.70
32394;DHT22;18853;45.426;9.206;2022-08-03T01:04:08;31.80;39.70
32394;DHT22;18853;45.426;9.206;2022-08-03T01:06:45;31.70;39.60
32394;DHT22;18853;45.426;9.206;2022-08-03T01:09:26;31.80;40.30
32394;DHT22;18853;45.426;9.206;2022-08-03T01:14:31;31.80;39.70
32394;DHT22;18853;45.426;9.206;2022-08-03T01:17:12;31.70;39.50
32394;DHT22;18853;45.426;9.206;2022-08-03T01:19:50;31.70;39.40
32394;DHT22;18853;45.426;9.206;2022-08-03T01:25:03;31.70;39.40
32394;DHT22;18853;45.426;9.206;2022-08-03T01:30:05;31.60;39.70
32394;DHT22;18853;45.426;9.206;2022-08-03T01:35:16;31.60;39.80
32394;DHT22;18853;45.426;9.206;2022-08-03T01:37:54;31.60;39.90
32394;DHT22;18853;45.426;9.206;2022-08-03T01:40:23;31.60;39.70
32394;DHT22;18853;45.426;9.206;2022-08-03T01:42:50;31.50;39.70
32394;DHT22;18853;45.426;9.206;2022-08-03T01:45:17;31.60;39.80
32394;DHT22;18853;45.426;9.206;2022-08-03T01:47:47;31.60;39.80
32394;DHT22;18853;45.426;9.206;2022-08-03T01:50:14;31.60;39.60
32394;DHT22;18853;45.426;9.206;2022-08-03T01:52:43;31.50;39.70
32394;DHT22;18853;45.426;9.206;2022-08-03T01:55:11;31.50;39.70
32394;DHT22;18853;45.426;9.206;2022-08-03T01:57:38;31.50;40.40
32394;DHT22;18853;45.426;9.206;2022-08-03T02:00:05;31.50;39.90
32394;DHT22;18853;45.426;9.206;2022-08-03T02:02:35;31.40;39.90
32394;DHT22;18853;45.426;9.206;2022-08-03T02:05:03;31.50;39.80
32394;DHT22;18853;45.426;9.206;2022-08-03T02:07:31;31.50;39.80
32394;DHT22;18853;45.426;9.206;2022-08-03T02:09:58;31.50;39.80
32394;DHT22;18853;45.426;9.206;2022-08-03T02:12:27;31.50;39.80
32394;DHT22;18853;45.426;9.206;2022-08-03T02:14:54;31.50;39.70
32394;DHT22;18853;45.426;9.206;2022-08-03T02:17:22;31.50;39.80
32394;DHT22;18853;45.426;9.206;2022-08-03T02:19:50;31.50;39.70
32394;DHT22;18853;45.426;9.206;2022-08-03T02:22:16;31.50;39.80
32394;DHT22;18853;45.426;9.206;2022-08-03T02:24:42;31.50;39.70
32394;DHT22;18853;45.426;9.206;2022-08-03T02:27:28;31.50;39.80
32394;DHT22;18853;45.426;9.206;2022-08-03T02:30:03;31.50;39.90
32394;DHT22;18853;45.426;9.206;2022-08-03T02:32:39;31.30;40.10
32394;DHT22;18853;45.426;9.206;2022-08-03T02:35:10;31.40;40.10
32394;DHT22;18853;45.426;9.206;2022-08-03T02:37:41;31.30;40.20
32394;DHT22;18853;45.426;9.206;2022-08-03T02:40:09;31.30;40.20
32394;DHT22;18853;45.426;9.206;2022-08-03T02:42:37;31.30;40.30
32394;DHT22;18853;45.426;9.206;2022-08-03T02:45:06;31.30;40.30
32394;DHT22;18853;45.426;9.206;2022-08-03T02:47:35;31.40;39.90
32394;DHT22;18853;45.426;9.206;2022-08-03T02:50:03;31.50;39.70
32394;DHT22;18853;45.426;9.206;2022-08-03T02:52:29;31.60;39.50
32394;DHT22;18853;45.426;9.206;2022-08-03T02:54:59;31.60;39.30
32394;DHT22;18853;45.426;9.206;2022-08-03T02:57:27;31.70;39.30
32394;DHT22;18853;45.426;9.206;2022-08-03T02:59:54;31.70;39.10
32394;DHT22;18853;45.426;9.206;2022-08-03T03:02:21;31.70;39.10
32394;DHT22;18853;45.426;9.206;2022-08-03T03:04:50;31.70;39.20
32394;DHT22;18853;45.426;9.206;2022-08-03T03:07:16;31.70;39.10
32394;DHT22;18853;45.426;9.206;2022-08-03T03:09:42;31.70;39.10
32394;DHT22;18853;45.426;9.206;2022-08-03T03:12:09;31.70;39.00
32394;DHT22;18853;45.426;9.206;2022-08-03T03:14:36;31.70;39.00
32394;DHT22;18853;45.426;9.206;2022-08-03T03:17:02;31.70;39.10
32394;DHT22;18853;45.426;9.206;2022-08-03T03:19:30;31.70;39.10
32394;DHT22;18853;45.426;9.206;2022-08-03T03:21:59;31.70;39.10
32394;DHT22;18853;45.426;9.206;2022-08-03T03:24:26;31.70;39.20
32394;DHT22;18853;45.426;9.206;2022-08-03T03:26:53;31.60;39.10
32394;DHT22;18853;45.426;9.206;2022-08-03T03:29:20;31.70;39.20
32394;DHT22;18853;45.426;9.206;2022-08-03T03:31:46;31.60;39.30
32394;DHT22;18853;45.426;9.206;2022-08-03T03:34:12;31.60;39.30
32394;DHT22;18853;45.426;9.206;2022-08-03T03:36:38;31.60;39.40
32394;DHT22;18853;45.426;9.206;2022-08-03T03:39:03;31.60;39.40
32394;DHT22;18853;45.426;9.206;2022-08-03T03:41:29;31.50;39.40
32394;DHT22;18853;45.426;9.206;2022-08-03T03:43:55;31.50;39.40
32394;DHT22;18853;45.426;9.206;2022-08-03T03:46:20;31.50;39.50
32394;DHT22;18853;45.426;9.206;2022-08-03T03:48:46;31.50;39.60
32394;DHT22;18853;45.426;9.206;2022-08-03T03:51:12;31.50;39.60
32394;DHT22;18853;45.426;9.206;2022-08-03T03:53:38;31.50;39.60
32394;DHT22;18853;45.426;9.206;2022-08-03T03:56:04;31.50;39.70
32394;DHT22;18853;45.426;9.206;2022-08-03T03:58:31;31.50;39.70
32394;DHT22;18853;45.426;9.206;2022-08-03T04:00:57;31.50;39.70
32394;DHT22;18853;45.426;9.206;2022-08-03T04:03:22;31.40;39.60
32394;DHT22;18853;45.426;9.206;2022-08-03T04:05:48;31.40;39.70
32394;DHT22;18853;45.426;9.206;2022-08-03T04:08:32;31.40;39.70
32394;DHT22;18853;45.426;9.206;2022-08-03T04:11:23;31.40;39.80
32394;DHT22;18853;45.426;9.206;2022-08-03T04:16:29;31.40;39.90
32394;DHT22;18853;45.426;9.206;2022-08-03T04:19:00;31.40;39.90
32394;DHT22;18853;45.426;9.206;2022-08-03T04:21:27;31.40;39.90
32394;DHT22;18853;45.426;9.206;2022-08-03T04:23:59;31.40;40.00
32394;DHT22;18853;45.426;9.206;2022-08-03T04:26:32;31.40;40.10
32394;DHT22;18853;45.426;9.206;2022-08-03T04:28:59;31.40;40.00
32394;DHT22;18853;45.426;9.206;2022-08-03T04:31:26;31.30;40.00
32394;DHT22;18853;45.426;9.206;2022-08-03T04:33:54;31.30;40.00
32394;DHT22;18853;45.426;9.206;2022-08-03T04:36:25;31.30;40.10
32394;DHT22;18853;45.426;9.206;2022-08-03T04:41:26;31.30;40.20
32394;DHT22;18853;45.426;9.206;2022-08-03T04:43:57;31.30;40.40
32394;DHT22;18853;45.426;9.206;2022-08-03T04:46:26;31.20;40.30
32394;DHT22;18853;45.426;9.206;2022-08-03T04:48:52;31.30;40.40
32394;DHT22;18853;45.426;9.206;2022-08-03T04:51:19;31.20;40.40
32394;DHT22;18853;45.426;9.206;2022-08-03T04:53:44;31.20;40.40
32394;DHT22;18853;45.426;9.206;2022-08-03T04:56:10;31.20;40.60
32394;DHT22;18853;45.426;9.206;2022-08-03T04:58:36;31.20;40.60
32394;DHT22;18853;45.426;9.206;2022-08-03T05:01:02;31.20;40.70
32394;DHT22;18853;45.426;9.206;2022-08-03T05:03:28;31.20;40.80
32394;DHT22;18853;45.426;9.206;2022-08-03T05:05:54;31.20;40.80
32394;DHT22;18853;45.426;9.206;2022-08-03T05:08:20;31.20;40.80
32394;DHT22;18853;45.426;9.206;2022-08-03T05:10:46;31.20;41.00
32394;DHT22;18853;45.426;9.206;2022-08-03T05:13:11;31.10;41.10
32394;DHT22;18853;45.426;9.206;2022-08-03T05:15:38;31.10;41.30
32394;DHT22;18853;45.426;9.206;2022-08-03T05:18:04;31.20;41.30
32394;DHT22;18853;45.426;9.206;2022-08-03T05:20:30;31.10;41.40
32394;DHT22;18853;45.426;9.206;2022-08-03T05:22:56;31.10;41.50
32394;DHT22;18853;45.426;9.206;2022-08-03T05:25:22;31.10;41.40
32394;DHT22;18853;45.426;9.206;2022-08-03T05:27:48;31.10;41.60
32394;DHT22;18853;45.426;9.206;2022-08-03T05:30:14;31.10;41.60
32394;DHT22;18853;45.426;9.206;2022-08-03T05:32:40;31.10;41.80
32394;DHT22;18853;45.426;9.206;2022-08-03T05:35:06;31.10;41.80
32394;DHT22;18853;45.426;9.206;2022-08-03T05:37:32;31.10;41.80
32394;DHT22;18853;45.426;9.206;2022-08-03T05:39:57;31.10;41.90
32394;DHT22;18853;45.426;9.206;2022-08-03T05:42:23;31.10;41.90
32394;DHT22;18853;45.426;9.206;2022-08-03T05:44:49;31.10;41.90
32394;DHT22;18853;45.426;9.206;2022-08-03T05:47:14;31.10;42.10
32394;DHT22;18853;45.426;9.206;2022-08-03T05:49:40;31.10;42.00
32394;DHT22;18853;45.426;9.206;2022-08-03T05:52:06;31.10;42.20
32394;DHT22;18853;45.426;9.206;2022-08-03T05:54:31;31.10;42.20
32394;DHT22;18853;45.426;9.206;2022-08-03T05:56:57;31.10;42.00
32394;DHT22;18853;45.426;9.206;2022-08-03T05:59:23;31.10;42.20
32394;DHT22;18853;45.426;9.206;2022-08-03T06:01:49;31.10;42.10
32394;DHT22;18853;45.426;9.206;2022-08-03T06:04:15;31.20;42.00
32394;DHT22;18853;45.426;9.206;2022-08-03T06:06:41;31.20;41.80
32394;DHT22;18853;45.426;9.206;2022-08-03T06:09:07;31.20;41.70
32394;DHT22;18853;45.426;9.206;2022-08-03T06:11:35;31.20;41.70
32394;DHT22;18853;45.426;9.206;2022-08-03T06:14:00;31.20;41.50
32394;DHT22;18853;45.426;9.206;2022-08-03T06:16:26;31.20;41.50
32394;DHT22;18853;45.426;9.206;2022-08-03T06:18:52;31.30;41.60
32394;DHT22;18853;45.426;9.206;2022-08-03T06:21:17;31.20;41.50
32394;DHT22;18853;45.426;9.206;2022-08-03T06:23:44;31.30;41.40
32394;DHT22;18853;45.426;9.206;2022-08-03T06:26:10;31.30;40.90
32394;DHT22;18853;45.426;9.206;2022-08-03T06:28:35;31.30;40.70
32394;DHT22;18853;45.426;9.206;2022-08-03T06:31:02;31.30;40.70
32394;DHT22;18853;45.426;9.206;2022-08-03T06:33:28;31.30;41.10
32394;DHT22;18853;45.426;9.206;2022-08-03T06:35:55;31.40;41.30
32394;DHT22;18853;45.426;9.206;2022-08-03T06:38:20;31.40;41.10
32394;DHT22;18853;45.426;9.206;2022-08-03T06:40:46;31.40;41.20
32394;DHT22;18853;45.426;9.206;2022-08-03T06:43:12;31.40;40.60
32394;DHT22;18853;45.426;9.206;2022-08-03T06:45:40;31.40;40.00
32394;DHT22;18853;45.426;9.206;2022-08-03T06:48:11;31.40;39.80
32394;DHT22;18853;45.426;9.206;2022-08-03T06:50:38;31.50;39.90
32394;DHT22;18853;45.426;9.206;2022-08-03T06:53:04;31.50;40.00
32394;DHT22;18853;45.426;9.206;2022-08-03T06:55:31;31.50;40.10
32394;DHT22;18853;45.426;9.206;2022-08-03T06:57:57;31.40;40.10
32394;DHT22;18853;45.426;9.206;2022-08-03T07:00:23;31.50;40.20
32394;DHT22;18853;45.426;9.206;2022-08-03T07:02:49;31.50;40.20
32394;DHT22;18853;45.426;9.206;2022-08-03T07:05:14;31.50;39.90
32394;DHT22;18853;45.426;9.206;2022-08-03T07:07:40;31.50;39.80
32394;DHT22;18853;45.426;9.206;2022-08-03T07:10:07;31.50;39.80
32394;DHT22;18853;45.426;9.206;2022-08-03T07:12:34;31.50;40.00
32394;DHT22;18853;45.426;9.206;2022-08-03T07:15:01;31.60;40.00
32394;DHT22;18853;45.426;9.206;2022-08-03T07:17:28;31.70;40.00
32394;DHT22;18853;45.426;9.206;2022-08-03T07:19:54;31.60;39.60
32394;DHT22;18853;45.426;9.206;2022-08-03T07:22:19;31.60;39.70
32394;DHT22;18853;45.426;9.206;2022-08-03T07:24:45;31.70;39.80
32394;DHT22;18853;45.426;9.206;2022-08-03T07:27:12;31.70;40.00
32394;DHT22;18853;45.426;9.206;2022-08-03T07:29:37;31.70;40.10
32394;DHT22;18853;45.426;9.206;2022-08-03T07:32:03;31.70;40.20
32394;DHT22;18853;45.426;9.206;2022-08-03T07:34:29;31.70;40.10
32394;DHT22;18853;45.426;9.206;2022-08-03T07:36:55;31.70;40.00
32394;DHT22;18853;45.426;9.206;2022-08-03T07:39:21;31.70;39.80
32394;DHT22;18853;45.426;9.206;2022-08-03T07:41:47;31.70;39.80
32394;DHT22;18853;45.426;9.206;2022-08-03T07:44:15;31.80;39.90
32394;DHT22;18853;45.426;9.206;2022-08-03T07:46:40;31.80;39.80
32394;DHT22;18853;45.426;9.206;2022-08-03T07:49:06;31.80;39.70
32394;DHT22;18853;45.426;9.206;2022-08-03T07:51:31;31.80;39.60
32394;DHT22;18853;45.426;9.206;2022-08-03T07:53:57;31.90;39.70
32394;DHT22;18853;45.426;9.206;2022-08-03T07:56:24;31.80;39.60
32394;DHT22;18853;45.426;9.206;2022-08-03T07:58:51;31.80;39.60
32394;DHT22;18853;45.426;9.206;2022-08-03T08:01:16;31.90;39.60
32394;DHT22;18853;45.426;9.206;2022-08-03T08:03:44;31.90;39.50
32394;DHT22;18853;45.426;9.206;2022-08-03T08:06:10;31.90;39.50
32394;DHT22;18853;45.426;9.206;2022-08-03T08:08:37;32.00;39.50
32394;DHT22;18853;45.426;9.206;2022-08-03T08:11:03;32.00;38.80
32394;DHT22;18853;45.426;9.206;2022-08-03T08:13:28;32.00;38.50
32394;DHT22;18853;45.426;9.206;2022-08-03T08:15:54;32.00;38.50
32394;DHT22;18853;45.426;9.206;2022-08-03T08:18:19;32.10;38.50
32394;DHT22;18853;45.426;9.206;2022-08-03T08:20:45;32.10;38.60
32394;DHT22;18853;45.426;9.206;2022-08-03T08:23:11;32.10;38.50
32394;DHT22;18853;45.426;9.206;2022-08-03T08:25:36;32.20;38.20
32394;DHT22;18853;45.426;9.206;2022-08-03T08:28:02;32.20;38.00
32394;DHT22;18853;45.426;9.206;2022-08-03T08:30:29;32.30;37.90
32394;DHT22;18853;45.426;9.206;2022-08-03T08:32:55;32.30;37.60
32394;DHT22;18853;45.426;9.206;2022-08-03T08:35:22;32.30;37.50
32394;DHT22;18853;45.426;9.206;2022-08-03T08:37:48;32.40;36.90
32394;DHT22;18853;45.426;9.206;2022-08-03T08:40:14;32.30;37.00
32394;DHT22;18853;45.426;9.206;2022-08-03T08:42:42;32.30;37.10
32394;DHT22;18853;45.426;9.206;2022-08-03T08:45:08;32.40;37.20
32394;DHT22;18853;45.426;9.206;2022-08-03T08:47:39;32.40;36.80
32394;DHT22;18853;45.426;9.206;2022-08-03T08:50:07;32.40;36.80
32394;DHT22;18853;45.426;9.206;2022-08-03T08:52:33;32.40;36.80
32394;DHT22;18853;45.426;9.206;2022-08-03T08:55:02;32.50;36.90
32394;DHT22;18853;45.426;9.206;2022-08-03T08:57:33;32.50;36.90
32394;DHT22;18853;45.426;9.206;2022-08-03T09:00:00;32.50;36.90
32394;DHT22;18853;45.426;9.206;2022-08-03T09:02:29;32.50;36.90
32394;DHT22;18853;45.426;9.206;2022-08-03T09:04:55;32.50;36.90
32394;DHT22;18853;45.426;9.206;2022-08-03T09:07:21;32.50;37.10
32394;DHT22;18853;45.426;9.206;2022-08-03T09:09:47;32.50;37.40
32394;DHT22;18853;45.426;9.206;2022-08-03T09:12:14;32.50;37.70
32394;DHT22;18853;45.426;9.206;2022-08-03T09:14:39;32.50;37.50
32394;DHT22;18853;45.426;9.206;2022-08-03T09:17:06;32.60;37.70
32394;DHT22;18853;45.426;9.206;2022-08-03T09:19:33;32.60;37.60
32394;DHT22;18853;45.426;9.206;2022-08-03T09:22:16;32.60;37.50
32394;DHT22;18853;45.426;9.206;2022-08-03T09:25:01;32.60;37.50
32394;DHT22;18853;45.426;9.206;2022-08-03T09:27:28;32.60;37.50
32394;DHT22;18853;45.426;9.206;2022-08-03T09:29:54;32.60;37.50
32394;DHT22;18853;45.426;9.206;2022-08-03T09:32:21;32.70;37.60
32394;DHT22;18853;45.426;9.206;2022-08-03T09:34:48;32.80;37.50
32394;DHT22;18853;45.426;9.206;2022-08-03T09:37:15;32.80;37.10
32394;DHT22;18853;45.426;9.206;2022-08-03T09:39:41;32.80;37.00
32394;DHT22;18853;45.426;9.206;2022-08-03T09:42:15;32.80;37.00
32394;DHT22;18853;45.426;9.206;2022-08-03T09:44:49;32.90;36.90
32394;DHT22;18853;45.426;9.206;2022-08-03T09:47:28;32.90;37.10
32394;DHT22;18853;45.426;9.206;2022-08-03T09:50:01;32.90;37.50
32394;DHT22;18853;45.426;9.206;2022-08-03T09:52:34;33.00;37.80
32394;DHT22;18853;45.426;9.206;2022-08-03T09:55:01;33.00;37.60
32394;DHT22;18853;45.426;9.206;2022-08-03T09:57:27;33.10;37.50
32394;DHT22;18853;45.426;9.206;2022-08-03T10:00:08;33.20;37.50
32394;DHT22;18853;45.426;9.206;2022-08-03T10:02:39;33.20;37.50
32394;DHT22;18853;45.426;9.206;2022-08-03T10:05:06;33.20;37.30
32394;DHT22;18853;45.426;9.206;2022-08-03T10:10:08;33.20;36.90
32394;DHT22;18853;45.426;9.206;2022-08-03T10:12:36;33.20;36.70
32394;DHT22;18853;45.426;9.206;2022-08-03T10:15:03;33.20;36.50
32394;DHT22;18853;45.426;9.206;2022-08-03T10:17:29;33.10;36.30
32394;DHT22;18853;45.426;9.206;2022-08-03T10:19:54;33.20;36.30
32394;DHT22;18853;45.426;9.206;2022-08-03T10:22:26;33.20;36.60
32394;DHT22;18853;45.426;9.206;2022-08-03T10:24:59;33.30;36.90
32394;DHT22;18853;45.426;9.206;2022-08-03T10:27:28;33.30;36.60
32394;DHT22;18853;45.426;9.206;2022-08-03T10:30:00;33.30;36.20
32394;DHT22;18853;45.426;9.206;2022-08-03T10:35:06;33.40;36.30
32394;DHT22;18853;45.426;9.206;2022-08-03T10:37:58;33.40;36.40
32394;DHT22;18853;45.426;9.206;2022-08-03T10:40:22;33.40;36.50
32394;DHT22;18853;45.426;9.206;2022-08-03T10:42:50;33.40;36.00
32394;DHT22;18853;45.426;9.206;2022-08-03T10:45:23;33.40;36.80
32394;DHT22;18853;45.426;9.206;2022-08-03T10:47:51;33.40;36.60
32394;DHT22;18853;45.426;9.206;2022-08-03T10:50:17;33.40;36.10
32394;DHT22;18853;45.426;9.206;2022-08-03T10:53:02;33.30;35.40
32394;DHT22;18853;45.426;9.206;2022-08-03T10:55:39;33.40;35.00
32394;DHT22;18853;45.426;9.206;2022-08-03T11:01:02;33.50;34.20
32394;DHT22;18853;45.426;9.206;2022-08-03T11:03:28;33.50;33.70
32394;DHT22;18853;45.426;9.206;2022-08-03T11:06:14;33.50;34.10
32394;DHT22;18853;45.426;9.206;2022-08-03T11:08:42;33.60;33.50
32394;DHT22;18853;45.426;9.206;2022-08-03T11:16:32;33.60;34.40
32394;DHT22;18853;45.426;9.206;2022-08-03T11:19:02;33.70;34.40
32394;DHT22;18853;45.426;9.206;2022-08-03T11:35:19;33.80;33.80
32394;DHT22;18853;45.426;9.206;2022-08-03T11:40:42;33.90;34.80
32394;DHT22;18853;45.426;9.206;2022-08-03T11:45:35;34.00;33.60
32394;DHT22;18853;45.426;9.206;2022-08-03T11:48:12;34.00;33.60
32394;DHT22;18853;45.426;9.206;2022-08-03T11:50:39;34.10;33.30
32394;DHT22;18853;45.426;9.206;2022-08-03T11:53:06;34.20;33.40
32394;DHT22;18853;45.426;9.206;2022-08-03T11:55:32;34.30;33.30
32394;DHT22;18853;45.426;9.206;2022-08-03T11:57:58;34.40;33.80
32394;DHT22;18853;45.426;9.206;2022-08-03T12:00:28;34.40;33.40
32394;DHT22;18853;45.426;9.206;2022-08-03T12:02:55;34.50;33.20
32394;DHT22;18853;45.426;9.206;2022-08-03T12:08:10;34.70;33.20
32394;DHT22;18853;45.426;9.206;2022-08-03T12:10:37;34.70;33.20
32394;DHT22;18853;45.426;9.206;2022-08-03T12:13:05;34.70;32.80
32394;DHT22;18853;45.426;9.206;2022-08-03T12:15:34;34.80;33.10
32394;DHT22;18853;45.426;9.206;2022-08-03T12:18:00;34.90;33.30
32394;DHT22;18853;45.426;9.206;2022-08-03T12:20:28;34.90;32.60
32394;DHT22;18853;45.426;9.206;2022-08-03T12:22:54;35.00;32.20
32394;DHT22;18853;45.426;9.206;2022-08-03T12:25:24;35.10;32.40
32394;DHT22;18853;45.426;9.206;2022-08-03T12:27:52;35.20;32.10
32394;DHT22;18853;45.426;9.206;2022-08-03T12:30:18;35.10;31.90
32394;DHT22;18853;45.426;9.206;2022-08-03T12:32:45;35.20;31.90
32394;DHT22;18853;45.426;9.206;2022-08-03T12:35:21;35.30;32.20
32394;DHT22;18853;45.426;9.206;2022-08-03T12:37:49;35.40;31.90
32394;DHT22;18853;45.426;9.206;2022-08-03T12:40:23;35.40;32.80
32394;DHT22;18853;45.426;9.206;2022-08-03T12:42:50;35.60;31.90
32394;DHT22;18853;45.426;9.206;2022-08-03T12:45:27;35.70;31.50
32394;DHT22;18853;45.426;9.206;2022-08-03T12:47:54;35.80;31.60
32394;DHT22;18853;45.426;9.206;2022-08-03T12:50:33;35.70;31.30
32394;DHT22;18853;45.426;9.206;2022-08-03T12:53:02;35.70;31.20
32394;DHT22;18853;45.426;9.206;2022-08-03T12:55:29;35.80;31.90
32394;DHT22;18853;45.426;9.206;2022-08-03T12:57:59;35.80;31.80
32394;DHT22;18853;45.426;9.206;2022-08-03T13:00:25;35.90;32.40
32394;DHT22;18853;45.426;9.206;2022-08-03T13:02:59;36.10;31.90
32394;DHT22;18853;45.426;9.206;2022-08-03T13:05:26;36.10;31.30
32394;DHT22;18853;45.426;9.206;2022-08-03T13:07:52;36.10;31.40
32394;DHT22;18853;45.426;9.206;2022-08-03T13:10:29;36.20;31.70
32394;DHT22;18853;45.426;9.206;2022-08-03T13:12:55;36.20;31.30
32394;DHT22;18853;45.426;9.206;2022-08-03T13:15:28;36.30;31.30
32394;DHT22;18853;45.426;9.206;2022-08-03T13:17:55;36.30;30.80
32394;DHT22;18853;45.426;9.206;2022-08-03T13:20:21;36.40;30.80
32394;DHT22;18853;45.426;9.206;2022-08-03T13:22:47;36.40;30.30
32394;DHT22;18853;45.426;9.206;2022-08-03T13:25:13;36.50;30.40
32394;DHT22;18853;45.426;9.206;2022-08-03T13:27:39;36.50;30.80
32394;DHT22;18853;45.426;9.206;2022-08-03T13:30:06;36.60;30.40
32394;DHT22;18853;45.426;9.206;2022-08-03T13:32:33;36.70;30.20
32394;DHT22;18853;45.426;9.206;2022-08-03T13:34:59;36.70;30.60
32394;DHT22;18853;45.426;9.206;2022-08-03T13:37:27;36.90;30.60
32394;DHT22;18853;45.426;9.206;2022-08-03T13:39:52;36.90;29.90
32394;DHT22;18853;45.426;9.206;2022-08-03T13:42:18;36.90;29.80
32394;DHT22;18853;45.426;9.206;2022-08-03T13:44:43;37.00;29.90
32394;DHT22;18853;45.426;9.206;2022-08-03T13:47:09;37.00;29.80
32394;DHT22;18853;45.426;9.206;2022-08-03T13:49:34;37.10;29.90
32394;DHT22;18853;45.426;9.206;2022-08-03T13:52:00;37.20;29.70
32394;DHT22;18853;45.426;9.206;2022-08-03T13:54:26;37.30;29.40
32394;DHT22;18853;45.426;9.206;2022-08-03T13:56:52;37.40;29.40
32394;DHT22;18853;45.426;9.206;2022-08-03T13:59:22;37.30;29.70
32394;DHT22;18853;45.426;9.206;2022-08-03T14:01:48;37.30;29.80
32394;DHT22;18853;45.426;9.206;2022-08-03T14:04:14;37.40;29.70
32394;DHT22;18853;45.426;9.206;2022-08-03T14:06:40;37.30;29.20
32394;DHT22;18853;45.426;9.206;2022-08-03T14:09:06;37.40;29.10
32394;DHT22;18853;45.426;9.206;2022-08-03T14:11:32;37.40;29.00
32394;DHT22;18853;45.426;9.206;2022-08-03T14:13:58;37.60;29.60
32394;DHT22;18853;45.426;9.206;2022-08-03T14:16:23;37.70;29.80
32394;DHT22;18853;45.426;9.206;2022-08-03T14:18:49;37.60;29.70
32394;DHT22;18853;45.426;9.206;2022-08-03T14:21:15;37.70;29.90
32394;DHT22;18853;45.426;9.206;2022-08-03T14:23:40;37.80;29.90
32394;DHT22;18853;45.426;9.206;2022-08-03T14:26:07;37.80;29.70
32394;DHT22;18853;45.426;9.206;2022-08-03T14:28:33;37.90;29.20
32394;DHT22;18853;45.426;9.206;2022-08-03T14:31:00;37.90;29.10
32394;DHT22;18853;45.426;9.206;2022-08-03T14:33:26;38.00;28.60
32394;DHT22;18853;45.426;9.206;2022-08-03T14:35:52;38.20;28.10
32394;DHT22;18853;45.426;9.206;2022-08-03T14:38:19;38.30;28.00
32394;DHT22;18853;45.426;9.206;2022-08-03T14:40:45;38.40;28.10
32394;DHT22;18853;45.426;9.206;2022-08-03T14:43:11;38.40;28.10
32394;DHT22;18853;45.426;9.206;2022-08-03T14:45:37;38.40;27.60
32394;DHT22;18853;45.426;9.206;2022-08-03T14:48:03;38.40;27.70
32394;DHT22;18853;45.426;9.206;2022-08-03T14:50:29;38.50;27.90
32394;DHT22;18853;45.426;9.206;2022-08-03T14:52:55;38.60;27.60
32394;DHT22;18853;45.426;9.206;2022-08-03T14:55:20;38.70;27.50
32394;DHT22;18853;45.426;9.206;2022-08-03T14:57:46;38.80;27.90
32394;DHT22;18853;45.426;9.206;2022-08-03T15:00:12;38.80;27.90
32394;DHT22;18853;45.426;9.206;2022-08-03T15:02:38;38.90;27.70
32394;DHT22;18853;45.426;9.206;2022-08-03T15:05:04;39.00;27.50
32394;DHT22;18853;45.426;9.206;2022-08-03T15:07:30;39.00;27.60
32394;DHT22;18853;45.426;9.206;2022-08-03T15:09:55;39.10;27.30
32394;DHT22;18853;45.426;9.206;2022-08-03T15:12:21;39.10;27.70
32394;DHT22;18853;45.426;9.206;2022-08-03T15:14:46;39.10;27.50
32394;DHT22;18853;45.426;9.206;2022-08-03T15:17:12;39.30;27.40
32394;DHT22;18853;45.426;9.206;2022-08-03T15:19:37;39.40;27.30
32394;DHT22;18853;45.426;9.206;2022-08-03T15:22:04;39.40;26.70
32394;DHT22;18853;45.426;9.206;2022-08-03T15:24:30;39.50;26.70
32394;DHT22;18853;45.426;9.206;2022-08-03T15:26:56;39.50;26.70
32394;DHT22;18853;45.426;9.206;2022-08-03T15:29:21;39.40;26.40
32394;DHT22;18853;45.426;9.206;2022-08-03T15:31:47;39.30;26.60
32394;DHT22;18853;45.426;9.206;2022-08-03T15:34:12;39.30;26.80
32394;DHT22;18853;45.426;9.206;2022-08-03T15:36:38;39.20;26.40
32394;DHT22;18853;45.426;9.206;2022-08-03T15:39:04;39.40;26.40
32394;DHT22;18853;45.426;9.206;2022-08-03T15:41:30;39.50;26.20
32394;DHT22;18853;45.426;9.206;2022-08-03T15:43:56;39.60;26.10
32394;DHT22;18853;45.426;9.206;2022-08-03T15:46:22;39.60;26.00
32394;DHT22;18853;45.426;9.206;2022-08-03T15:48:47;39.60;25.70
32394;DHT22;18853;45.426;9.206;2022-08-03T15:51:13;39.60;25.70
32394;DHT22;18853;45.426;9.206;2022-08-03T15:53:39;39.70;25.70
32394;DHT22;18853;45.426;9.206;2022-08-03T15:56:05;39.80;25.70
32394;DHT22;18853;45.426;9.206;2022-08-03T15:58:33;40.00;25.80
32394;DHT22;18853;45.426;9.206;2022-08-03T16:00:59;40.00;25.70
32394;DHT22;18853;45.426;9.206;2022-08-03T16:03:26;40.10;25.50
32394;DHT22;18853;45.426;9.206;2022-08-03T16:05:53;40.20;25.60
32394;DHT22;18853;45.426;9.206;2022-08-03T16:08:19;40.20;25.60
32394;DHT22;18853;45.426;9.206;2022-08-03T16:10:46;40.10;25.40
32394;DHT22;18853;45.426;9.206;2022-08-03T16:13:12;40.20;25.20
32394;DHT22;18853;45.426;9.206;2022-08-03T16:15:37;40.20;25.40
32394;DHT22;18853;45.426;9.206;2022-08-03T16:18:04;40.20;25.30
32394;DHT22;18853;45.426;9.206;2022-08-03T16:20:30;40.30;25.10
32394;DHT22;18853;45.426;9.206;2022-08-03T16:22:56;40.30;24.80